sensor_id;sensor_type;location;lat;lon;timestamp;P1;durP1;ratioP1;P2;durP2;ratioP2
6133;SDS011;3098;42.678;23.364;2023-07-24T00:00:20;15.38;;;7.35;;
6133;SDS011;3098;42.678;23.364;2023-07-24T00:02:47;15.95;;;7.72;;
6133;SDS011;3098;42.678;23.364;2023-07-24T00:05:14;25.15;;;7.85;;
6133;SDS011;3098;42.678;23.364;2023-07-24T00:07:43;12.10;;;5.97;;
6133;SDS011;3098;42.678;23.364;2023-07-24T00:10:10;14.40;;;7.05;;
6133;SDS011;3098;42.678;23.364;2023-07-24T00:12:37;13.45;;;6.65;;
6133;SDS011;3098;42.678;23.364;2023-07-24T00:15:05;14.65;;;7.75;;
6133;SDS011;3098;42.678;23.364;2023-07-24T00:17:33;13.05;;;7.13;;
6133;SDS011;3098;42.678;23.364;2023-07-24T00:20:00;18.48;;;7.50;;
6133;SDS011;3098;42.678;23.364;2023-07-24T00:22:27;15.05;;;7.00;;
6133;SDS011;3098;42.678;23.364;2023-07-24T00:24:56;17.17;;;8.30;;
6133;SDS011;3098;42.678;23.364;2023-07-24T00:27:23;17.30;;;7.63;;
6133;SDS011;3098;42.678;23.364;2023-07-24T00:29:50;13.45;;;7.00;;
6133;SDS011;3098;42.678;23.364;2023-07-24T00:32:18;16.95;;;7.50;;
6133;SDS011;3098;42.678;23.364;2023-07-24T00:34:46;14.73;;;7.18;;
6133;SDS011;3098;42.678;23.364;2023-07-24T00:37:13;11.82;;;6.63;;
6133;SDS011;3098;42.678;23.364;2023-07-24T00:39:40;15.38;;;7.55;;
6133;SDS011;3098;42.678;23.364;2023-07-24T00:42:09;12.18;;;6.55;;
6133;SDS011;3098;42.678;23.364;2023-07-24T00:44:36;17.23;;;7.15;;
6133;SDS011;3098;42.678;23.364;2023-07-24T00:47:04;11.80;;;6.88;;
6133;SDS011;3098;42.678;23.364;2023-07-24T00:49:31;14.55;;;6.75;;
6133;SDS011;3098;42.678;23.364;2023-07-24T00:51:58;14.07;;;6.85;;
6133;SDS011;3098;42.678;23.364;2023-07-24T00:54:26;16.70;;;7.45;;
6133;SDS011;3098;42.678;23.364;2023-07-24T00:56:57;10.77;;;6.43;;
6133;SDS011;3098;42.678;23.364;2023-07-24T00:59:26;12.73;;;7.03;;
6133;SDS011;3098;42.678;23.364;2023-07-24T01:01:54;19.77;;;8.20;;
6133;SDS011;3098;42.678;23.364;2023-07-24T01:04:21;14.07;;;7.90;;
6133;SDS011;3098;42.678;23.364;2023-07-24T01:06:48;11.80;;;6.43;;
6133;SDS011;3098;42.678;23.364;2023-07-24T01:09:15;16.85;;;7.15;;
6133;SDS011;3098;42.678;23.364;2023-07-24T01:11:44;17.63;;;9.05;;
6133;SDS011;3098;42.678;23.364;2023-07-24T01:14:17;14.75;;;6.88;;
6133;SDS011;3098;42.678;23.364;2023-07-24T01:16:51;12.35;;;7.50;;
6133;SDS011;3098;42.678;23.364;2023-07-24T01:19:23;17.02;;;7.35;;
6133;SDS011;3098;42.678;23.364;2023-07-24T01:22:02;14.23;;;7.03;;
6133;SDS011;3098;42.678;23.364;2023-07-24T01:24:43;11.70;;;6.55;;
6133;SDS011;3098;42.678;23.364;2023-07-24T01:27:29;12.88;;;7.18;;
6133;SDS011;3098;42.678;23.364;2023-07-24T01:29:56;13.40;;;6.45;;
6133;SDS011;3098;42.678;23.364;2023-07-24T01:32:23;13.48;;;7.07;;
6133;SDS011;3098;42.678;23.364;2023-07-24T01:34:51;11.13;;;6.38;;
6133;SDS011;3098;42.678;23.364;2023-07-24T01:37:19;15.40;;;6.97;;
6133;SDS011;3098;42.678;23.364;2023-07-24T01:39:48;15.15;;;7.78;;
6133;SDS011;3098;42.678;23.364;2023-07-24T01:42:16;12.70;;;6.85;;
6133;SDS011;3098;42.678;23.364;2023-07-24T01:44:46;13.30;;;6.88;;
6133;SDS011;3098;42.678;23.364;2023-07-24T01:47:17;14.85;;;7.07;;
6133;SDS011;3098;42.678;23.364;2023-07-24T01:49:45;14.40;;;6.90;;
6133;SDS011;3098;42.678;23.364;2023-07-24T01:52:12;14.73;;;7.35;;
6133;SDS011;3098;42.678;23.364;2023-07-24T01:54:39;17.83;;;7.55;;
6133;SDS011;3098;42.678;23.364;2023-07-24T01:57:06;16.02;;;7.45;;
6133;SDS011;3098;42.678;23.364;2023-07-24T01:59:33;13.55;;;6.22;;
6133;SDS011;3098;42.678;23.364;2023-07-24T02:02:02;13.93;;;7.38;;
6133;SDS011;3098;42.678;23.364;2023-07-24T02:04:29;15.65;;;7.65;;
6133;SDS011;3098;42.678;23.364;2023-07-24T02:06:57;18.98;;;7.53;;
6133;SDS011;3098;42.678;23.364;2023-07-24T02:09:24;16.80;;;7.38;;
6133;SDS011;3098;42.678;23.364;2023-07-24T02:11:51;16.55;;;7.65;;
6133;SDS011;3098;42.678;23.364;2023-07-24T02:14:18;20.33;;;7.30;;
6133;SDS011;3098;42.678;23.364;2023-07-24T02:16:47;13.07;;;6.28;;
6133;SDS011;3098;42.678;23.364;2023-07-24T02:19:16;14.88;;;7.60;;
6133;SDS011;3098;42.678;23.364;2023-07-24T02:21:43;20.35;;;8.38;;
6133;SDS011;3098;42.678;23.364;2023-07-24T02:24:11;17.33;;;7.85;;
6133;SDS011;3098;42.678;23.364;2023-07-24T02:26:38;16.70;;;7.32;;
6133;SDS011;3098;42.678;23.364;2023-07-24T02:29:05;13.93;;;7.15;;
6133;SDS011;3098;42.678;23.364;2023-07-24T02:31:32;19.33;;;7.53;;
6133;SDS011;3098;42.678;23.364;2023-07-24T02:34:00;15.57;;;7.70;;
6133;SDS011;3098;42.678;23.364;2023-07-24T02:36:29;17.10;;;7.88;;
6133;SDS011;3098;42.678;23.364;2023-07-24T02:38:56;18.15;;;8.05;;
6133;SDS011;3098;42.678;23.364;2023-07-24T02:41:23;16.88;;;8.00;;
6133;SDS011;3098;42.678;23.364;2023-07-24T02:43:50;16.33;;;7.13;;
6133;SDS011;3098;42.678;23.364;2023-07-24T02:46:17;16.40;;;7.38;;
6133;SDS011;3098;42.678;23.364;2023-07-24T02:48:44;17.65;;;6.72;;
6133;SDS011;3098;42.678;23.364;2023-07-24T02:51:12;21.70;;;7.85;;
6133;SDS011;3098;42.678;23.364;2023-07-24T02:53:40;16.35;;;7.88;;
6133;SDS011;3098;42.678;23.364;2023-07-24T02:56:07;14.80;;;7.25;;
6133;SDS011;3098;42.678;23.364;2023-07-24T02:58:34;15.48;;;7.75;;
6133;SDS011;3098;42.678;23.364;2023-07-24T03:01:02;21.05;;;8.55;;
6133;SDS011;3098;42.678;23.364;2023-07-24T03:03:31;15.40;;;7.53;;
6133;SDS011;3098;42.678;23.364;2023-07-24T03:05:58;21.90;;;8.43;;
6133;SDS011;3098;42.678;23.364;2023-07-24T03:08:26;17.48;;;8.18;;
6133;SDS011;3098;42.678;23.364;2023-07-24T03:10:55;19.40;;;7.93;;
6133;SDS011;3098;42.678;23.364;2023-07-24T03:13:22;18.20;;;7.60;;
6133;SDS011;3098;42.678;23.364;2023-07-24T03:15:52;17.63;;;8.07;;
6133;SDS011;3098;42.678;23.364;2023-07-24T03:18:20;17.27;;;7.63;;
6133;SDS011;3098;42.678;23.364;2023-07-24T03:20:47;15.00;;;6.95;;
6133;SDS011;3098;42.678;23.364;2023-07-24T03:23:14;19.08;;;7.75;;
6133;SDS011;3098;42.678;23.364;2023-07-24T03:25:42;16.13;;;7.88;;
6133;SDS011;3098;42.678;23.364;2023-07-24T03:28:13;17.52;;;8.48;;
6133;SDS011;3098;42.678;23.364;2023-07-24T03:30:40;18.92;;;8.82;;
6133;SDS011;3098;42.678;23.364;2023-07-24T03:33:07;16.67;;;7.78;;
6133;SDS011;3098;42.678;23.364;2023-07-24T03:35:34;21.45;;;8.30;;
6133;SDS011;3098;42.678;23.364;2023-07-24T03:38:01;19.30;;;7.63;;
6133;SDS011;3098;42.678;23.364;2023-07-24T03:40:29;15.40;;;7.78;;
6133;SDS011;3098;42.678;23.364;2023-07-24T03:42:56;17.42;;;7.90;;
6133;SDS011;3098;42.678;23.364;2023-07-24T03:45:25;17.88;;;8.07;;
6133;SDS011;3098;42.678;23.364;2023-07-24T03:47:53;18.98;;;9.25;;
6133;SDS011;3098;42.678;23.364;2023-07-24T03:50:20;19.08;;;9.27;;
6133;SDS011;3098;42.678;23.364;2023-07-24T03:52:47;16.60;;;8.27;;
6133;SDS011;3098;42.678;23.364;2023-07-24T03:55:14;19.00;;;8.32;;
6133;SDS011;3098;42.678;23.364;2023-07-24T03:57:41;17.00;;;8.15;;
6133;SDS011;3098;42.678;23.364;2023-07-24T04:00:09;21.80;;;8.93;;
6133;SDS011;3098;42.678;23.364;2023-07-24T04:02:39;16.52;;;7.88;;
6133;SDS011;3098;42.678;23.364;2023-07-24T04:05:06;18.95;;;8.10;;
6133;SDS011;3098;42.678;23.364;2023-07-24T04:07:34;17.73;;;8.65;;
6133;SDS011;3098;42.678;23.364;2023-07-24T04:10:02;22.42;;;8.90;;
6133;SDS011;3098;42.678;23.364;2023-07-24T04:12:30;21.95;;;8.88;;
6133;SDS011;3098;42.678;23.364;2023-07-24T04:14:57;20.63;;;8.65;;
6133;SDS011;3098;42.678;23.364;2023-07-24T04:17:24;19.55;;;9.13;;
6133;SDS011;3098;42.678;23.364;2023-07-24T04:19:53;25.25;;;9.45;;
6133;SDS011;3098;42.678;23.364;2023-07-24T04:22:20;17.30;;;8.27;;
6133;SDS011;3098;42.678;23.364;2023-07-24T04:24:47;16.73;;;8.50;;
6133;SDS011;3098;42.678;23.364;2023-07-24T04:27:14;18.45;;;9.05;;
6133;SDS011;3098;42.678;23.364;2023-07-24T04:29:42;15.65;;;8.10;;
6133;SDS011;3098;42.678;23.364;2023-07-24T04:32:09;17.73;;;8.48;;
6133;SDS011;3098;42.678;23.364;2023-07-24T04:34:36;20.80;;;8.27;;
6133;SDS011;3098;42.678;23.364;2023-07-24T04:37:05;22.85;;;8.75;;
6133;SDS011;3098;42.678;23.364;2023-07-24T04:39:32;20.15;;;8.77;;
6133;SDS011;3098;42.678;23.364;2023-07-24T04:41:59;15.23;;;7.72;;
6133;SDS011;3098;42.678;23.364;2023-07-24T04:44:27;15.55;;;8.48;;
6133;SDS011;3098;42.678;23.364;2023-07-24T04:46:54;16.25;;;7.40;;
6133;SDS011;3098;42.678;23.364;2023-07-24T04:49:22;14.77;;;7.60;;
6133;SDS011;3098;42.678;23.364;2023-07-24T04:51:49;14.05;;;7.05;;
6133;SDS011;3098;42.678;23.364;2023-07-24T04:54:18;15.93;;;8.90;;
6133;SDS011;3098;42.678;23.364;2023-07-24T04:56:45;15.32;;;7.60;;
6133;SDS011;3098;42.678;23.364;2023-07-24T04:59:13;13.48;;;6.63;;
6133;SDS011;3098;42.678;23.364;2023-07-24T05:01:40;16.83;;;7.68;;
6133;SDS011;3098;42.678;23.364;2023-07-24T05:04:07;12.52;;;6.95;;
6133;SDS011;3098;42.678;23.364;2023-07-24T05:06:34;19.02;;;8.55;;
6133;SDS011;3098;42.678;23.364;2023-07-24T05:09:03;19.08;;;9.45;;
6133;SDS011;3098;42.678;23.364;2023-07-24T05:11:34;16.88;;;7.88;;
6133;SDS011;3098;42.678;23.364;2023-07-24T05:14:01;15.00;;;8.15;;
6133;SDS011;3098;42.678;23.364;2023-07-24T05:16:28;17.90;;;8.32;;
6133;SDS011;3098;42.678;23.364;2023-07-24T05:18:56;18.40;;;9.38;;
6133;SDS011;3098;42.678;23.364;2023-07-24T05:21:23;16.52;;;7.88;;
6133;SDS011;3098;42.678;23.364;2023-07-24T05:23:50;16.17;;;7.97;;
6133;SDS011;3098;42.678;23.364;2023-07-24T05:26:18;13.93;;;7.38;;
6133;SDS011;3098;42.678;23.364;2023-07-24T05:28:49;16.13;;;8.00;;
6133;SDS011;3098;42.678;23.364;2023-07-24T05:31:18;14.40;;;8.27;;
6133;SDS011;3098;42.678;23.364;2023-07-24T05:33:45;16.02;;;7.57;;
6133;SDS011;3098;42.678;23.364;2023-07-24T05:36:12;16.17;;;7.68;;
6133;SDS011;3098;42.678;23.364;2023-07-24T05:38:40;12.10;;;7.43;;
6133;SDS011;3098;42.678;23.364;2023-07-24T05:41:07;11.90;;;6.78;;
6133;SDS011;3098;42.678;23.364;2023-07-24T05:43:34;13.35;;;7.32;;
6133;SDS011;3098;42.678;23.364;2023-07-24T05:46:03;13.30;;;7.05;;
6133;SDS011;3098;42.678;23.364;2023-07-24T05:48:30;19.55;;;8.93;;
6133;SDS011;3098;42.678;23.364;2023-07-24T05:50:57;17.95;;;7.50;;
6133;SDS011;3098;42.678;23.364;2023-07-24T05:53:24;11.15;;;7.03;;
6133;SDS011;3098;42.678;23.364;2023-07-24T05:56:00;13.88;;;7.80;;
6133;SDS011;3098;42.678;23.364;2023-07-24T05:58:28;13.15;;;7.65;;
6133;SDS011;3098;42.678;23.364;2023-07-24T06:00:55;17.17;;;8.55;;
6133;SDS011;3098;42.678;23.364;2023-07-24T06:03:24;12.05;;;7.38;;
6133;SDS011;3098;42.678;23.364;2023-07-24T06:05:51;14.38;;;7.28;;
6133;SDS011;3098;42.678;23.364;2023-07-24T06:08:19;15.30;;;7.60;;
6133;SDS011;3098;42.678;23.364;2023-07-24T06:10:47;16.48;;;6.78;;
6133;SDS011;3098;42.678;23.364;2023-07-24T06:13:14;16.25;;;6.78;;
6133;SDS011;3098;42.678;23.364;2023-07-24T06:15:41;13.98;;;6.88;;
6133;SDS011;3098;42.678;23.364;2023-07-24T06:18:09;14.40;;;6.15;;
6133;SDS011;3098;42.678;23.364;2023-07-24T06:20:38;12.07;;;6.35;;
6133;SDS011;3098;42.678;23.364;2023-07-24T06:23:05;12.48;;;5.80;;
6133;SDS011;3098;42.678;23.364;2023-07-24T06:25:33;12.43;;;6.47;;
6133;SDS011;3098;42.678;23.364;2023-07-24T06:28:00;9.90;;;5.80;;
6133;SDS011;3098;42.678;23.364;2023-07-24T06:30:28;10.93;;;5.75;;
6133;SDS011;3098;42.678;23.364;2023-07-24T06:32:55;10.32;;;6.35;;
6133;SDS011;3098;42.678;23.364;2023-07-24T06:35:22;11.95;;;7.05;;
6133;SDS011;3098;42.678;23.364;2023-07-24T06:37:51;9.55;;;6.20;;
6133;SDS011;3098;42.678;23.364;2023-07-24T06:40:18;11.93;;;6.82;;
6133;SDS011;3098;42.678;23.364;2023-07-24T06:42:45;13.18;;;6.95;;
6133;SDS011;3098;42.678;23.364;2023-07-24T06:45:12;10.27;;;6.15;;
6133;SDS011;3098;42.678;23.364;2023-07-24T06:47:40;14.40;;;6.55;;
6133;SDS011;3098;42.678;23.364;2023-07-24T06:50:07;11.38;;;6.15;;
6133;SDS011;3098;42.678;23.364;2023-07-24T06:52:34;12.80;;;8.20;;
6133;SDS011;3098;42.678;23.364;2023-07-24T06:55:03;10.05;;;6.05;;
6133;SDS011;3098;42.678;23.364;2023-07-24T06:57:30;11.68;;;6.68;;
6133;SDS011;3098;42.678;23.364;2023-07-24T06:59:58;10.60;;;6.30;;
6133;SDS011;3098;42.678;23.364;2023-07-24T07:02:25;13.23;;;7.30;;
6133;SDS011;3098;42.678;23.364;2023-07-24T07:04:53;12.55;;;6.22;;
6133;SDS011;3098;42.678;23.364;2023-07-24T07:07:20;10.63;;;6.72;;
6133;SDS011;3098;42.678;23.364;2023-07-24T07:09:48;10.52;;;6.63;;
6133;SDS011;3098;42.678;23.364;2023-07-24T07:12:16;10.52;;;6.22;;
6133;SDS011;3098;42.678;23.364;2023-07-24T07:14:43;13.80;;;6.43;;
6133;SDS011;3098;42.678;23.364;2023-07-24T07:17:11;12.35;;;6.10;;
6133;SDS011;3098;42.678;23.364;2023-07-24T07:19:38;9.32;;;6.20;;
6133;SDS011;3098;42.678;23.364;2023-07-24T07:22:05;13.70;;;6.55;;
6133;SDS011;3098;42.678;23.364;2023-07-24T07:24:33;16.15;;;6.50;;
6133;SDS011;3098;42.678;23.364;2023-07-24T07:27:00;15.52;;;6.78;;
6133;SDS011;3098;42.678;23.364;2023-07-24T07:29:28;12.07;;;6.53;;
6133;SDS011;3098;42.678;23.364;2023-07-24T07:31:56;11.25;;;6.43;;
6133;SDS011;3098;42.678;23.364;2023-07-24T07:34:23;10.93;;;5.95;;
6133;SDS011;3098;42.678;23.364;2023-07-24T07:36:50;17.92;;;6.35;;
6133;SDS011;3098;42.678;23.364;2023-07-24T07:39:17;13.15;;;6.45;;
6133;SDS011;3098;42.678;23.364;2023-07-24T07:41:43;10.05;;;6.22;;
6133;SDS011;3098;42.678;23.364;2023-07-24T07:44:11;11.18;;;6.05;;
6133;SDS011;3098;42.678;23.364;2023-07-24T07:46:39;12.43;;;5.97;;
6133;SDS011;3098;42.678;23.364;2023-07-24T07:49:06;13.82;;;6.90;;
6133;SDS011;3098;42.678;23.364;2023-07-24T07:51:34;10.77;;;6.72;;
6133;SDS011;3098;42.678;23.364;2023-07-24T07:54:01;10.30;;;6.38;;
6133;SDS011;3098;42.678;23.364;2023-07-24T07:56:28;14.63;;;6.80;;
6133;SDS011;3098;42.678;23.364;2023-07-24T07:58:56;12.60;;;6.50;;
6133;SDS011;3098;42.678;23.364;2023-07-24T08:01:23;16.83;;;6.80;;
6133;SDS011;3098;42.678;23.364;2023-07-24T08:03:51;16.27;;;7.85;;
6133;SDS011;3098;42.678;23.364;2023-07-24T08:06:19;14.52;;;7.22;;
6133;SDS011;3098;42.678;23.364;2023-07-24T08:08:47;18.20;;;7.97;;
6133;SDS011;3098;42.678;23.364;2023-07-24T08:11:14;17.52;;;7.55;;
6133;SDS011;3098;42.678;23.364;2023-07-24T08:13:41;14.63;;;6.72;;
6133;SDS011;3098;42.678;23.364;2023-07-24T08:16:12;19.42;;;6.93;;
6133;SDS011;3098;42.678;23.364;2023-07-24T08:18:43;23.48;;;8.45;;
6133;SDS011;3098;42.678;23.364;2023-07-24T08:21:12;23.75;;;8.00;;
6133;SDS011;3098;42.678;23.364;2023-07-24T08:23:39;14.40;;;7.55;;
6133;SDS011;3098;42.678;23.364;2023-07-24T08:26:06;11.68;;;6.97;;
6133;SDS011;3098;42.678;23.364;2023-07-24T08:28:34;21.95;;;7.38;;
6133;SDS011;3098;42.678;23.364;2023-07-24T08:31:01;14.18;;;7.35;;
6133;SDS011;3098;42.678;23.364;2023-07-24T08:33:28;13.48;;;7.22;;
6133;SDS011;3098;42.678;23.364;2023-07-24T08:35:58;12.77;;;7.88;;
6133;SDS011;3098;42.678;23.364;2023-07-24T08:38:28;16.00;;;8.07;;
6133;SDS011;3098;42.678;23.364;2023-07-24T08:41:02;16.23;;;7.47;;
6133;SDS011;3098;42.678;23.364;2023-07-24T08:43:31;15.00;;;7.05;;
6133;SDS011;3098;42.678;23.364;2023-07-24T08:45:59;13.57;;;8.07;;
6133;SDS011;3098;42.678;23.364;2023-07-24T08:48:28;12.18;;;7.13;;
6133;SDS011;3098;42.678;23.364;2023-07-24T08:51:00;12.88;;;7.72;;
6133;SDS011;3098;42.678;23.364;2023-07-24T08:53:30;17.08;;;7.68;;
6133;SDS011;3098;42.678;23.364;2023-07-24T08:56:00;17.92;;;7.82;;
6133;SDS011;3098;42.678;23.364;2023-07-24T08:58:29;20.35;;;8.30;;
6133;SDS011;3098;42.678;23.364;2023-07-24T09:00:56;16.15;;;7.93;;
6133;SDS011;3098;42.678;23.364;2023-07-24T09:03:25;23.52;;;8.88;;
6133;SDS011;3098;42.678;23.364;2023-07-24T09:05:53;14.75;;;8.48;;
6133;SDS011;3098;42.678;23.364;2023-07-24T09:08:31;17.48;;;7.95;;
6133;SDS011;3098;42.678;23.364;2023-07-24T09:10:59;12.40;;;7.85;;
6133;SDS011;3098;42.678;23.364;2023-07-24T09:13:28;15.48;;;8.02;;
6133;SDS011;3098;42.678;23.364;2023-07-24T09:15:55;19.23;;;7.63;;
6133;SDS011;3098;42.678;23.364;2023-07-24T09:18:22;13.88;;;7.63;;
6133;SDS011;3098;42.678;23.364;2023-07-24T09:20:49;13.38;;;7.63;;
6133;SDS011;3098;42.678;23.364;2023-07-24T09:23:25;15.82;;;7.93;;
6133;SDS011;3098;42.678;23.364;2023-07-24T09:25:55;18.15;;;7.75;;
6133;SDS011;3098;42.678;23.364;2023-07-24T09:28:23;19.48;;;8.68;;
6133;SDS011;3098;42.678;23.364;2023-07-24T09:30:54;13.05;;;8.18;;
6133;SDS011;3098;42.678;23.364;2023-07-24T09:33:22;13.85;;;7.80;;
6133;SDS011;3098;42.678;23.364;2023-07-24T09:35:57;20.10;;;8.93;;
6133;SDS011;3098;42.678;23.364;2023-07-24T09:38:24;15.55;;;8.20;;
6133;SDS011;3098;42.678;23.364;2023-07-24T09:40:52;14.70;;;7.47;;
6133;SDS011;3098;42.678;23.364;2023-07-24T09:43:22;16.80;;;8.85;;
6133;SDS011;3098;42.678;23.364;2023-07-24T09:45:51;16.85;;;8.20;;
6133;SDS011;3098;42.678;23.364;2023-07-24T09:48:20;17.88;;;7.85;;
6133;SDS011;3098;42.678;23.364;2023-07-24T09:50:53;14.13;;;8.55;;
6133;SDS011;3098;42.678;23.364;2023-07-24T09:53:22;15.70;;;7.68;;
6133;SDS011;3098;42.678;23.364;2023-07-24T09:55:56;21.05;;;8.35;;
6133;SDS011;3098;42.678;23.364;2023-07-24T09:58:27;14.55;;;7.82;;
6133;SDS011;3098;42.678;23.364;2023-07-24T10:00:56;15.95;;;8.40;;
6133;SDS011;3098;42.678;23.364;2023-07-24T10:03:24;16.23;;;8.13;;
6133;SDS011;3098;42.678;23.364;2023-07-24T10:05:52;14.88;;;7.75;;
6133;SDS011;3098;42.678;23.364;2023-07-24T10:08:20;15.18;;;7.97;;
6133;SDS011;3098;42.678;23.364;2023-07-24T10:10:49;14.02;;;8.43;;
6133;SDS011;3098;42.678;23.364;2023-07-24T10:13:19;15.63;;;8.85;;
6133;SDS011;3098;42.678;23.364;2023-07-24T10:15:49;20.13;;;9.07;;
6133;SDS011;3098;42.678;23.364;2023-07-24T10:18:16;15.40;;;8.02;;
6133;SDS011;3098;42.678;23.364;2023-07-24T10:20:45;20.88;;;8.00;;
6133;SDS011;3098;42.678;23.364;2023-07-24T10:23:16;14.13;;;8.57;;
6133;SDS011;3098;42.678;23.364;2023-07-24T10:25:45;16.70;;;8.48;;
6133;SDS011;3098;42.678;23.364;2023-07-24T10:28:12;12.65;;;7.72;;
6133;SDS011;3098;42.678;23.364;2023-07-24T10:30:41;16.77;;;7.95;;
6133;SDS011;3098;42.678;23.364;2023-07-24T10:33:11;22.95;;;8.23;;
6133;SDS011;3098;42.678;23.364;2023-07-24T10:35:45;14.77;;;8.23;;
6133;SDS011;3098;42.678;23.364;2023-07-24T10:38:16;17.27;;;8.07;;
6133;SDS011;3098;42.678;23.364;2023-07-24T10:40:44;14.05;;;8.38;;
6133;SDS011;3098;42.678;23.364;2023-07-24T10:43:14;14.90;;;8.25;;
6133;SDS011;3098;42.678;23.364;2023-07-24T10:45:47;19.20;;;7.60;;
6133;SDS011;3098;42.678;23.364;2023-07-24T10:48:17;20.33;;;8.63;;
6133;SDS011;3098;42.678;23.364;2023-07-24T10:50:46;18.58;;;8.23;;
6133;SDS011;3098;42.678;23.364;2023-07-24T10:53:16;15.77;;;8.15;;
6133;SDS011;3098;42.678;23.364;2023-07-24T10:55:45;18.98;;;8.65;;
6133;SDS011;3098;42.678;23.364;2023-07-24T10:58:14;16.80;;;7.65;;
6133;SDS011;3098;42.678;23.364;2023-07-24T11:00:42;18.45;;;7.57;;
6133;SDS011;3098;42.678;23.364;2023-07-24T11:03:10;11.10;;;6.95;;
6133;SDS011;3098;42.678;23.364;2023-07-24T11:05:40;14.82;;;7.05;;
6133;SDS011;3098;42.678;23.364;2023-07-24T11:08:09;17.48;;;7.40;;
6133;SDS011;3098;42.678;23.364;2023-07-24T11:10:44;14.65;;;7.55;;
6133;SDS011;3098;42.678;23.364;2023-07-24T11:13:13;15.98;;;7.95;;
6133;SDS011;3098;42.678;23.364;2023-07-24T11:15:40;19.70;;;7.07;;
6133;SDS011;3098;42.678;23.364;2023-07-24T11:18:08;21.98;;;7.07;;
6133;SDS011;3098;42.678;23.364;2023-07-24T11:20:37;12.65;;;6.05;;
6133;SDS011;3098;42.678;23.364;2023-07-24T11:23:11;15.00;;;5.95;;
6133;SDS011;3098;42.678;23.364;2023-07-24T11:25:39;19.00;;;6.28;;
6133;SDS011;3098;42.678;23.364;2023-07-24T11:28:07;15.70;;;6.15;;
6133;SDS011;3098;42.678;23.364;2023-07-24T11:30:38;17.55;;;6.57;;
6133;SDS011;3098;42.678;23.364;2023-07-24T11:33:07;14.90;;;7.15;;
6133;SDS011;3098;42.678;23.364;2023-07-24T11:35:35;14.45;;;7.05;;
6133;SDS011;3098;42.678;23.364;2023-07-24T11:38:03;15.70;;;7.07;;
6133;SDS011;3098;42.678;23.364;2023-07-24T11:40:34;13.43;;;7.32;;
6133;SDS011;3098;42.678;23.364;2023-07-24T11:43:03;18.13;;;7.60;;
6133;SDS011;3098;42.678;23.364;2023-07-24T11:45:31;16.10;;;6.93;;
6133;SDS011;3098;42.678;23.364;2023-07-24T11:48:13;12.85;;;6.15;;
6133;SDS011;3098;42.678;23.364;2023-07-24T11:50:41;13.25;;;6.40;;
6133;SDS011;3098;42.678;23.364;2023-07-24T11:53:18;12.07;;;6.00;;
6133;SDS011;3098;42.678;23.364;2023-07-24T11:55:48;14.70;;;6.70;;
6133;SDS011;3098;42.678;23.364;2023-07-24T11:58:16;14.85;;;7.10;;
6133;SDS011;3098;42.678;23.364;2023-07-24T12:00:45;14.60;;;6.90;;
6133;SDS011;3098;42.678;23.364;2023-07-24T12:03:13;11.82;;;6.45;;
6133;SDS011;3098;42.678;23.364;2023-07-24T12:05:40;20.40;;;7.25;;
6133;SDS011;3098;42.678;23.364;2023-07-24T12:08:09;14.95;;;6.55;;
6133;SDS011;3098;42.678;23.364;2023-07-24T12:10:39;16.52;;;6.97;;
6133;SDS011;3098;42.678;23.364;2023-07-24T12:13:08;12.30;;;6.40;;
6133;SDS011;3098;42.678;23.364;2023-07-24T12:15:36;13.90;;;6.75;;
6133;SDS011;3098;42.678;23.364;2023-07-24T12:18:04;15.38;;;6.57;;
6133;SDS011;3098;42.678;23.364;2023-07-24T12:20:31;14.40;;;7.15;;
6133;SDS011;3098;42.678;23.364;2023-07-24T12:22:59;15.13;;;7.30;;
6133;SDS011;3098;42.678;23.364;2023-07-24T12:25:27;23.77;;;7.90;;
6133;SDS011;3098;42.678;23.364;2023-07-24T12:27:56;14.18;;;7.13;;
6133;SDS011;3098;42.678;23.364;2023-07-24T12:30:24;18.40;;;6.60;;
6133;SDS011;3098;42.678;23.364;2023-07-24T12:32:52;20.13;;;6.65;;
6133;SDS011;3098;42.678;23.364;2023-07-24T12:35:20;14.35;;;6.28;;
6133;SDS011;3098;42.678;23.364;2023-07-24T12:37:47;11.32;;;6.38;;
6133;SDS011;3098;42.678;23.364;2023-07-24T12:40:14;10.68;;;6.18;;
6133;SDS011;3098;42.678;23.364;2023-07-24T12:42:41;20.10;;;7.18;;
6133;SDS011;3098;42.678;23.364;2023-07-24T12:45:09;11.35;;;5.95;;
6133;SDS011;3098;42.678;23.364;2023-07-24T12:47:37;11.50;;;6.60;;
6133;SDS011;3098;42.678;23.364;2023-07-24T12:50:05;19.00;;;7.30;;
6133;SDS011;3098;42.678;23.364;2023-07-24T12:52:32;17.30;;;7.25;;
6133;SDS011;3098;42.678;23.364;2023-07-24T12:55:00;15.75;;;6.45;;
6133;SDS011;3098;42.678;23.364;2023-07-24T12:57:27;13.95;;;6.75;;
6133;SDS011;3098;42.678;23.364;2023-07-24T12:59:55;14.23;;;7.40;;
6133;SDS011;3098;42.678;23.364;2023-07-24T13:02:22;12.85;;;6.53;;
6133;SDS011;3098;42.678;23.364;2023-07-24T13:04:51;17.45;;;6.53;;
6133;SDS011;3098;42.678;23.364;2023-07-24T13:07:19;10.00;;;6.10;;
6133;SDS011;3098;42.678;23.364;2023-07-24T13:09:47;15.15;;;6.53;;
6133;SDS011;3098;42.678;23.364;2023-07-24T13:12:15;17.98;;;6.85;;
6133;SDS011;3098;42.678;23.364;2023-07-24T13:14:43;16.02;;;6.35;;
6133;SDS011;3098;42.678;23.364;2023-07-24T13:17:10;12.65;;;6.63;;
6133;SDS011;3098;42.678;23.364;2023-07-24T13:19:38;11.73;;;5.65;;
6133;SDS011;3098;42.678;23.364;2023-07-24T13:22:07;13.05;;;6.53;;
6133;SDS011;3098;42.678;23.364;2023-07-24T13:24:34;14.02;;;6.53;;
6133;SDS011;3098;42.678;23.364;2023-07-24T13:27:01;11.48;;;6.43;;
6133;SDS011;3098;42.678;23.364;2023-07-24T13:29:29;14.60;;;6.65;;
6133;SDS011;3098;42.678;23.364;2023-07-24T13:31:57;17.33;;;7.40;;
6133;SDS011;3098;42.678;23.364;2023-07-24T13:34:24;13.23;;;6.82;;
6133;SDS011;3098;42.678;23.364;2023-07-24T13:36:51;15.02;;;6.82;;
6133;SDS011;3098;42.678;23.364;2023-07-24T13:39:21;13.70;;;6.50;;
6133;SDS011;3098;42.678;23.364;2023-07-24T13:41:48;15.60;;;6.80;;
6133;SDS011;3098;42.678;23.364;2023-07-24T13:44:15;9.85;;;6.10;;
6133;SDS011;3098;42.678;23.364;2023-07-24T13:46:42;15.70;;;5.95;;
6133;SDS011;3098;42.678;23.364;2023-07-24T13:49:09;13.68;;;7.32;;
6133;SDS011;3098;42.678;23.364;2023-07-24T13:51:37;16.73;;;7.80;;
6133;SDS011;3098;42.678;23.364;2023-07-24T13:54:04;13.50;;;7.10;;
6133;SDS011;3098;42.678;23.364;2023-07-24T13:56:33;12.73;;;7.07;;
6133;SDS011;3098;42.678;23.364;2023-07-24T13:59:01;11.80;;;6.78;;
6133;SDS011;3098;42.678;23.364;2023-07-24T14:01:29;17.13;;;6.80;;
6133;SDS011;3098;42.678;23.364;2023-07-24T14:03:56;15.90;;;6.43;;
6133;SDS011;3098;42.678;23.364;2023-07-24T14:06:25;18.20;;;7.03;;
6133;SDS011;3098;42.678;23.364;2023-07-24T14:08:52;13.93;;;6.90;;
6133;SDS011;3098;42.678;23.364;2023-07-24T14:11:21;11.88;;;7.13;;
6133;SDS011;3098;42.678;23.364;2023-07-24T14:13:52;17.23;;;7.07;;
6133;SDS011;3098;42.678;23.364;2023-07-24T14:16:20;13.60;;;7.45;;
6133;SDS011;3098;42.678;23.364;2023-07-24T14:18:48;15.38;;;7.78;;
6133;SDS011;3098;42.678;23.364;2023-07-24T14:21:15;15.63;;;7.70;;
6133;SDS011;3098;42.678;23.364;2023-07-24T14:23:46;11.23;;;6.68;;
6133;SDS011;3098;42.678;23.364;2023-07-24T14:26:13;12.68;;;7.32;;
6133;SDS011;3098;42.678;23.364;2023-07-24T14:28:44;19.77;;;8.18;;
6133;SDS011;3098;42.678;23.364;2023-07-24T14:31:13;14.15;;;7.28;;
6133;SDS011;3098;42.678;23.364;2023-07-24T14:33:40;12.25;;;6.68;;
6133;SDS011;3098;42.678;23.364;2023-07-24T14:36:08;14.32;;;7.47;;
6133;SDS011;3098;42.678;23.364;2023-07-24T14:38:36;15.93;;;7.32;;
6133;SDS011;3098;42.678;23.364;2023-07-24T14:41:03;13.45;;;6.90;;
6133;SDS011;3098;42.678;23.364;2023-07-24T14:43:31;14.88;;;7.35;;
6133;SDS011;3098;42.678;23.364;2023-07-24T14:45:59;14.30;;;7.05;;
6133;SDS011;3098;42.678;23.364;2023-07-24T14:48:28;16.27;;;7.65;;
6133;SDS011;3098;42.678;23.364;2023-07-24T14:50:55;14.98;;;6.90;;
6133;SDS011;3098;42.678;23.364;2023-07-24T14:53:22;15.20;;;7.10;;